createdAt,value
2019-01-14T00:00:59.854Z,0.34
2019-01-14T00:03:27.431Z,0.16
2019-01-14T00:05:55.019Z,0.36
2019-01-14T00:08:22.615Z,0.26
2019-01-14T00:10:50.056Z,-0.18
2019-01-14T00:13:17.476Z,-0.39
2019-01-14T00:15:45.024Z,-0.64
2019-01-14T00:18:12.791Z,-0.47
2019-01-14T00:20:40.406Z,-0.38
2019-01-14T00:23:07.887Z,-0.44
2019-01-14T00:25:35.473Z,-1.11
2019-01-14T00:28:02.943Z,-1.11
2019-01-14T00:30:30.521Z,-0.93
2019-01-14T00:32:57.960Z,-0.84
2019-01-14T00:35:25.418Z,-0.84
2019-01-14T00:37:52.997Z,-1.14
2019-01-14T00:40:20.418Z,-1.11
2019-01-14T00:42:47.972Z,-1.34
2019-01-14T00:45:15.554Z,-1.27
2019-01-14T00:47:43.090Z,-1.50
2019-01-14T00:50:12.485Z,-1.63
2019-01-14T00:52:40.257Z,-1.64
2019-01-14T00:55:08.374Z,-1.76
2019-01-14T00:57:35.856Z,-1.88
2019-01-14T01:00:07.805Z,-1.95
2019-01-14T01:02:35.368Z,-2.27
2019-01-14T01:05:03.470Z,-2.54
2019-01-14T01:07:31.002Z,-2.94
2019-01-14T01:09:58.520Z,-3.07
2019-01-14T01:12:26.204Z,-3.07
2019-01-14T01:14:53.666Z,-2.58
2019-01-14T01:17:21.136Z,-2.58
2019-01-14T01:19:48.759Z,-2.15
2019-01-14T01:22:16.310Z,-1.73
2019-01-14T01:24:43.840Z,-1.61
2019-01-14T01:27:11.330Z,-1.47
2019-01-14T01:29:38.845Z,-1.33
2019-01-14T01:32:06.363Z,-1.32
2019-01-14T01:34:33.862Z,-1.04
2019-01-14T01:37:01.412Z,-1.04
2019-01-14T01:39:28.983Z,-0.89
2019-01-14T01:41:56.407Z,-0.66
2019-01-14T01:44:24.010Z,-0.73
2019-01-14T01:46:51.689Z,-0.77
2019-01-14T01:49:19.180Z,-0.77
2019-01-14T01:51:46.638Z,-0.94
2019-01-14T01:54:14.231Z,-0.79
2019-01-14T01:56:41.746Z,-0.87
2019-01-14T01:59:09.270Z,-1.01
2019-01-14T02:01:36.735Z,-1.21
2019-01-14T02:04:04.495Z,-1.29
2019-01-14T02:06:39.000Z,-0.99
2019-01-14T02:09:01.587Z,-0.99
2019-01-14T02:11:29.090Z,-0.95
2019-01-14T02:13:56.981Z,-1.06
2019-01-14T02:16:24.599Z,-1.07
2019-01-14T02:18:52.146Z,-0.90
2019-01-14T02:21:19.799Z,-1.18
2019-01-14T02:23:47.390Z,-1.11
2019-01-14T02:26:14.983Z,-1.25
2019-01-14T02:28:42.467Z,-1.28
2019-01-14T02:31:10.360Z,-1.28
2019-01-14T02:33:37.830Z,-1.00
2019-01-14T02:36:05.518Z,-1.00
2019-01-14T02:38:33.116Z,-1.07
2019-01-14T02:41:00.530Z,-0.83
2019-01-14T02:43:28.077Z,-0.93
2019-01-14T02:45:55.492Z,-1.24
2019-01-14T02:48:23.019Z,-1.37
2019-01-14T02:50:50.615Z,-1.84
2019-01-14T02:53:18.099Z,-2.40
2019-01-14T02:55:45.760Z,-2.57
2019-01-14T02:58:13.318Z,-3.31
2019-01-14T03:00:40.905Z,-3.31
2019-01-14T03:03:08.491Z,-3.32
2019-01-14T03:05:36.090Z,-3.32
2019-01-14T03:08:03.776Z,-3.13
2019-01-14T03:10:31.210Z,-3.02
2019-01-14T03:12:58.626Z,-2.78
2019-01-14T03:15:26.152Z,-2.78
2019-01-14T03:17:53.804Z,-2.93
2019-01-14T03:20:21.475Z,-2.85
2019-01-14T03:22:49.088Z,-3.19
2019-01-14T03:25:16.746Z,-3.19
2019-01-14T03:27:44.443Z,-3.09
2019-01-14T03:30:14.924Z,-3.09
2019-01-14T03:32:42.406Z,-3.44
2019-01-14T03:35:10.640Z,-3.54
2019-01-14T03:37:38.200Z,-3.54
2019-01-14T03:40:08.678Z,-3.51
2019-01-14T03:42:36.173Z,-3.51
2019-01-14T03:45:04.344Z,-3.25
2019-01-14T03:47:31.817Z,-2.92
2019-01-14T03:49:59.430Z,-3.44
2019-01-14T03:52:27.002Z,-3.51
2019-01-14T03:54:54.491Z,-3.56
2019-01-14T03:57:22.211Z,-3.37
2019-01-14T03:59:49.667Z,-3.13
2019-01-14T04:02:17.175Z,-3.41
2019-01-14T04:04:44.759Z,-3.41
2019-01-14T04:07:13.789Z,-3.11
2019-01-14T04:09:41.694Z,-3.27
2019-01-14T04:12:09.200Z,-3.27
2019-01-14T04:14:36.817Z,-3.11
2019-01-14T04:17:04.253Z,-2.65
2019-01-14T04:19:31.868Z,-2.55
2019-01-14T04:21:59.477Z,-2.16
2019-01-14T04:24:26.970Z,-2.00
2019-01-14T04:26:54.458Z,-2.02
2019-01-14T04:29:22.047Z,-1.90
2019-01-14T04:31:49.555Z,-1.86
2019-01-14T04:34:17.012Z,-1.85
2019-01-14T04:36:44.569Z,-1.39
2019-01-14T04:39:12.422Z,-1.35
2019-01-14T04:41:39.878Z,-1.31
2019-01-14T04:44:07.459Z,-1.63
2019-01-14T04:46:34.958Z,-1.63
2019-01-14T04:49:02.467Z,-1.21
2019-01-14T04:51:29.962Z,-1.20
2019-01-14T04:53:57.473Z,-1.00
2019-01-14T04:56:25.037Z,-1.10
2019-01-14T04:58:52.555Z,-1.20
2019-01-14T05:01:20.038Z,-1.22
2019-01-14T05:03:47.551Z,-1.20
2019-01-14T05:06:15.524Z,-1.51
2019-01-14T05:08:43.304Z,-1.48
2019-01-14T05:11:10.881Z,-1.24
2019-01-14T05:13:38.467Z,-1.24
2019-01-14T05:16:05.868Z,-0.99
2019-01-14T05:18:33.362Z,-0.90
2019-01-14T05:21:00.899Z,-0.90
2019-01-14T05:23:28.571Z,-0.78
2019-01-14T05:25:56.176Z,-0.73
2019-01-14T05:28:23.770Z,-0.97
2019-01-14T05:30:51.355Z,-1.42
2019-01-14T05:33:19.050Z,-1.42
2019-01-14T05:35:46.573Z,-1.81
2019-01-14T05:38:14.154Z,-1.81
2019-01-14T05:40:41.549Z,-1.65
2019-01-14T05:43:09.059Z,-1.30
2019-01-14T05:45:36.720Z,-1.62
2019-01-14T05:48:04.461Z,-1.33
2019-01-14T05:50:32.638Z,-1.08
2019-01-14T05:53:00.169Z,-1.16
2019-01-14T05:55:27.571Z,-1.14
2019-01-14T05:57:55.058Z,-1.01
2019-01-14T06:00:26.379Z,-0.63
2019-01-14T06:02:54.743Z,-0.59
2019-01-14T06:05:22.788Z,-0.89
2019-01-14T06:07:50.819Z,-0.58
2019-01-14T06:10:18.522Z,-0.70
2019-01-14T06:12:46.034Z,-0.43
2019-01-14T06:15:14.870Z,-0.73
2019-01-14T06:17:42.446Z,-1.02
2019-01-14T06:20:11.848Z,-0.72
2019-01-14T06:22:39.357Z,-0.91
2019-01-14T06:25:08.548Z,-0.62
2019-01-14T06:27:36.196Z,-0.82
2019-01-14T06:30:07.133Z,-1.00
2019-01-14T06:32:34.686Z,-1.52
2019-01-14T06:35:02.174Z,-1.32
2019-01-14T06:37:29.656Z,-1.57
2019-01-14T06:39:57.287Z,-1.88
2019-01-14T06:42:24.910Z,-1.23
2019-01-14T06:44:52.793Z,-0.67
2019-01-14T06:47:21.357Z,-0.67
2019-01-14T06:49:48.970Z,-0.58
2019-01-14T06:52:16.476Z,-0.55
2019-01-14T06:54:43.964Z,-0.58
2019-01-14T06:57:11.606Z,-0.39
2019-01-14T06:59:39.314Z,-0.61
2019-01-14T07:02:06.957Z,-0.50
2019-01-14T07:04:34.529Z,-0.38
2019-01-14T07:07:02.235Z,-0.13
2019-01-14T07:09:30.130Z,-0.19
2019-01-14T07:11:58.016Z,-0.40
2019-01-14T07:14:25.684Z,-0.72
2019-01-14T07:16:53.320Z,-0.91
2019-01-14T07:19:20.815Z,-0.73
2019-01-14T07:21:48.944Z,-0.51
2019-01-14T07:24:16.691Z,-0.49
2019-01-14T07:26:44.481Z,-0.62
2019-01-14T07:29:11.911Z,-0.31
2019-01-14T07:31:39.586Z,-0.09
2019-01-14T07:34:07.306Z,0.36
2019-01-14T07:36:34.896Z,0.38
2019-01-14T07:39:04.479Z,0.60
2019-01-14T07:41:31.946Z,0.68
2019-01-14T07:43:59.539Z,1.08
2019-01-14T07:46:27.030Z,0.92
2019-01-14T07:48:54.626Z,1.01
2019-01-14T07:51:22.256Z,0.88
2019-01-14T07:53:49.978Z,0.82
2019-01-14T07:56:17.872Z,0.96
2019-01-14T07:58:45.948Z,1.14
2019-01-14T08:01:13.805Z,1.29
2019-01-14T08:03:41.239Z,1.52
2019-01-14T08:06:08.762Z,1.54
2019-01-14T08:08:36.311Z,1.52
2019-01-14T08:11:03.851Z,1.56
2019-01-14T08:13:31.463Z,1.41
2019-01-14T08:15:59.017Z,1.44
2019-01-14T08:18:26.423Z,1.81
2019-01-14T08:20:54.173Z,1.66
2019-01-14T08:23:21.699Z,1.73
2019-01-14T08:25:49.388Z,1.81
2019-01-14T08:28:16.926Z,1.28
2019-01-14T08:30:44.447Z,1.49
2019-01-14T08:33:11.981Z,1.69
2019-01-14T08:35:39.702Z,2.07
2019-01-14T08:38:07.452Z,1.98
2019-01-14T08:40:35.226Z,2.28
2019-01-14T08:43:02.795Z,2.22
2019-01-14T08:45:30.261Z,2.27
2019-01-14T08:47:57.853Z,2.27
2019-01-14T08:50:25.670Z,2.24
2019-01-14T08:52:53.452Z,2.06
2019-01-14T08:55:21.226Z,2.09
2019-01-14T08:57:54.457Z,2.26
2019-01-14T09:00:20.596Z,2.24
2019-01-14T09:02:48.158Z,2.04
2019-01-14T09:05:16.087Z,2.21
2019-01-14T09:07:43.873Z,2.18
2019-01-14T09:10:14.647Z,2.00
2019-01-14T09:12:42.173Z,1.93
2019-01-14T09:15:11.251Z,1.79
2019-01-14T09:17:38.964Z,1.90
2019-01-14T09:20:10.764Z,2.06
2019-01-14T09:22:38.720Z,2.24
2019-01-14T09:25:06.653Z,2.31
2019-01-14T09:27:34.240Z,2.22
2019-01-14T09:30:01.792Z,1.97
2019-01-14T09:32:29.272Z,2.05
2019-01-14T09:34:56.696Z,2.20
2019-01-14T09:37:24.364Z,2.29
2019-01-14T09:39:52.042Z,2.23
2019-01-14T09:42:19.733Z,2.00
2019-01-14T09:44:47.343Z,1.95
2019-01-14T09:47:15.190Z,1.94
2019-01-14T09:49:45.590Z,1.97
2019-01-14T09:52:12.417Z,2.04
2019-01-14T09:54:39.905Z,2.11
2019-01-14T09:57:07.522Z,1.96
2019-01-14T09:59:35.178Z,2.00
2019-01-14T10:02:02.797Z,1.92
2019-01-14T10:04:30.358Z,1.93
2019-01-14T10:06:57.927Z,1.85
2019-01-14T10:09:25.415Z,1.96
2019-01-14T10:11:52.934Z,2.13
2019-01-14T10:14:20.756Z,2.18
2019-01-14T10:16:48.615Z,2.18
2019-01-14T10:19:16.384Z,2.28
2019-01-14T10:21:43.915Z,2.19
2019-01-14T10:24:11.622Z,1.92
2019-01-14T10:26:39.230Z,1.82
2019-01-14T10:29:06.907Z,1.79
2019-01-14T10:31:34.524Z,2.30
2019-01-14T10:34:02.000Z,2.41
2019-01-14T10:36:29.667Z,2.20
2019-01-14T10:38:57.081Z,2.38
2019-01-14T10:41:24.648Z,2.44
2019-01-14T10:43:52.175Z,2.61
2019-01-14T10:46:19.816Z,2.77
2019-01-14T10:48:47.408Z,2.92
2019-01-14T10:51:15.155Z,3.20
2019-01-14T10:53:42.749Z,3.09
2019-01-14T10:56:10.608Z,3.02
2019-01-14T10:58:38.097Z,2.87
2019-01-14T11:01:05.785Z,3.07
2019-01-14T11:03:33.427Z,2.97
2019-01-14T11:06:01.283Z,2.98
2019-01-14T11:08:29.537Z,3.31
2019-01-14T11:10:57.015Z,3.37
2019-01-14T11:13:24.635Z,3.37
2019-01-14T11:15:52.070Z,2.89
2019-01-14T11:18:19.599Z,2.97
2019-01-14T11:20:47.392Z,2.98
2019-01-14T11:23:14.951Z,2.84
2019-01-14T11:25:42.618Z,2.90
2019-01-14T11:28:10.216Z,3.02
2019-01-14T11:30:37.846Z,3.43
2019-01-14T11:33:05.575Z,3.32
2019-01-14T11:35:35.136Z,2.94
2019-01-14T11:38:02.962Z,2.81
2019-01-14T11:40:38.921Z,2.66
2019-01-14T11:43:06.907Z,2.59
2019-01-14T11:45:34.514Z,2.67
2019-01-14T11:48:02.496Z,2.65
2019-01-14T11:50:30.077Z,2.80
2019-01-14T11:52:57.534Z,3.08
2019-01-14T11:55:25.194Z,3.04
2019-01-14T11:57:52.645Z,2.89
2019-01-14T12:00:22.523Z,2.87
2019-01-14T12:02:50.062Z,2.97
2019-01-14T12:05:17.716Z,3.02
2019-01-14T12:07:45.410Z,3.18
2019-01-14T12:10:13.193Z,3.22
2019-01-14T12:12:40.726Z,3.32
2019-01-14T12:15:15.297Z,3.50
2019-01-14T12:17:42.906Z,3.35
2019-01-14T12:20:12.320Z,3.59
2019-01-14T12:22:40.080Z,3.57
2019-01-14T12:25:08.564Z,3.57
2019-01-14T12:27:36.487Z,3.49
2019-01-14T12:30:09.307Z,3.39
2019-01-14T12:32:36.829Z,3.17
2019-01-14T12:35:04.937Z,3.20
2019-01-14T12:37:32.675Z,3.08
2019-01-14T12:40:00.233Z,2.93
2019-01-14T12:42:27.738Z,2.90
2019-01-14T12:44:55.354Z,2.86
2019-01-14T12:47:22.959Z,2.99
2019-01-14T12:49:50.482Z,2.99
2019-01-14T12:52:17.930Z,2.96
2019-01-14T12:54:45.512Z,3.08
2019-01-14T12:57:13.028Z,3.17
2019-01-14T12:59:40.412Z,3.18
2019-01-14T13:02:08.041Z,3.02
2019-01-14T13:04:35.711Z,3.14
2019-01-14T13:07:03.283Z,3.32
2019-01-14T13:09:30.954Z,3.36
2019-01-14T13:11:58.689Z,3.24
2019-01-14T13:14:26.243Z,3.34
2019-01-14T13:16:54.136Z,3.32
2019-01-14T13:19:21.840Z,3.29
2019-01-14T13:21:49.383Z,3.19
2019-01-14T13:24:16.967Z,3.23
2019-01-14T13:26:44.615Z,3.25
2019-01-14T13:29:15.267Z,3.22
2019-01-14T13:31:41.922Z,3.25
2019-01-14T13:34:09.814Z,3.23
2019-01-14T13:36:37.882Z,3.19
2019-01-14T13:39:08.540Z,3.07
2019-01-14T13:41:36.056Z,3.09
2019-01-14T13:44:03.918Z,3.28
2019-01-14T13:46:31.546Z,3.27
2019-01-14T13:48:59.054Z,3.28
2019-01-14T13:51:26.711Z,3.45
2019-01-14T13:53:54.287Z,3.38
2019-01-14T13:56:22.121Z,3.29
2019-01-14T13:58:49.651Z,3.11
2019-01-14T14:01:17.285Z,3.02
2019-01-14T14:03:44.883Z,3.05
2019-01-14T14:06:12.554Z,3.01
2019-01-14T14:08:40.661Z,2.95
2019-01-14T14:11:08.545Z,3.13
2019-01-14T14:13:35.970Z,3.32
2019-01-14T14:16:03.657Z,3.61
2019-01-14T14:18:31.146Z,3.82
2019-01-14T14:20:58.745Z,3.72
2019-01-14T14:23:26.184Z,3.46
2019-01-14T14:25:54.065Z,3.36
2019-01-14T14:28:21.639Z,3.50
2019-01-14T14:30:49.335Z,3.38
2019-01-14T14:33:16.887Z,3.32
2019-01-14T14:35:44.310Z,3.28
2019-01-14T14:38:12.486Z,3.12
2019-01-14T14:40:39.973Z,2.98
2019-01-14T14:43:07.395Z,2.91
2019-01-14T14:45:35.050Z,2.90
2019-01-14T14:48:02.795Z,2.89
2019-01-14T14:50:30.494Z,2.81
2019-01-14T14:52:58.107Z,2.83
2019-01-14T14:55:26.663Z,2.77
2019-01-14T14:57:54.399Z,2.82
2019-01-14T15:00:22.686Z,2.88
2019-01-14T15:02:50.506Z,2.83
2019-01-14T15:05:18.380Z,2.78
2019-01-14T15:07:46.197Z,2.87
2019-01-14T15:10:15.549Z,2.89
2019-01-14T15:12:43.226Z,2.77
2019-01-14T15:15:12.500Z,2.73
2019-01-14T15:17:40.163Z,2.77
2019-01-14T15:20:10.756Z,2.80
2019-01-14T15:22:38.302Z,2.89
2019-01-14T15:25:05.902Z,3.18
2019-01-14T15:27:33.456Z,3.49
2019-01-14T15:30:00.985Z,3.70
2019-01-14T15:32:28.584Z,3.44
2019-01-14T15:34:56.037Z,3.29
2019-01-14T15:37:24.025Z,3.43
2019-01-14T15:39:51.606Z,3.51
2019-01-14T15:42:20.177Z,3.30
2019-01-14T15:44:47.667Z,3.41
2019-01-14T15:47:15.207Z,3.53
2019-01-14T15:49:42.960Z,3.34
2019-01-14T15:52:10.587Z,3.30
2019-01-14T15:54:38.134Z,3.31
2019-01-14T15:57:06.000Z,3.26
2019-01-14T15:59:33.594Z,3.22
2019-01-14T16:02:01.714Z,3.26
2019-01-14T16:04:29.333Z,3.45
2019-01-14T16:06:56.954Z,3.43
2019-01-14T16:09:24.550Z,3.54
2019-01-14T16:11:52.173Z,3.33
2019-01-14T16:14:19.754Z,3.60
2019-01-14T16:16:47.374Z,3.54
2019-01-14T16:19:14.938Z,3.36
2019-01-14T16:21:42.524Z,3.14
2019-01-14T16:24:10.255Z,3.15
2019-01-14T16:26:37.864Z,2.96
2019-01-14T16:29:05.907Z,2.64
2019-01-14T16:31:33.428Z,2.73
2019-01-14T16:34:01.100Z,2.71
2019-01-14T16:36:28.639Z,2.61
2019-01-14T16:38:56.254Z,2.54
2019-01-14T16:41:23.708Z,2.48
2019-01-14T16:43:51.323Z,2.48
2019-01-14T16:46:18.819Z,2.38
2019-01-14T16:48:46.335Z,2.48
2019-01-14T16:51:14.009Z,2.51
2019-01-14T16:53:41.645Z,2.44
2019-01-14T16:56:09.154Z,2.48
2019-01-14T16:58:36.741Z,2.52
2019-01-14T17:01:04.363Z,2.52
2019-01-14T17:03:31.779Z,2.47
2019-01-14T17:05:59.415Z,2.65
2019-01-14T17:08:26.948Z,2.77
2019-01-14T17:10:54.657Z,3.06
2019-01-14T17:13:22.190Z,3.11
2019-01-14T17:15:49.753Z,3.22
2019-01-14T17:18:17.331Z,3.20
2019-01-14T17:20:44.817Z,3.22
2019-01-14T17:23:12.240Z,3.45
2019-01-14T17:25:39.753Z,3.47
2019-01-14T17:28:07.393Z,3.61
2019-01-14T17:30:34.957Z,3.26
2019-01-14T17:33:02.700Z,2.95
2019-01-14T17:35:30.249Z,2.69
2019-01-14T17:37:57.909Z,2.68
2019-01-14T17:40:32.305Z,2.46
2019-01-14T17:42:56.334Z,2.49
2019-01-14T17:45:23.940Z,2.38
2019-01-14T17:47:52.765Z,2.55
2019-01-14T17:50:20.382Z,2.39
2019-01-14T17:52:47.896Z,2.46
2019-01-14T17:55:15.572Z,2.74
2019-01-14T17:57:42.954Z,2.73
2019-01-14T18:00:16.292Z,2.80
2019-01-14T18:02:43.896Z,2.66
2019-01-14T18:05:11.929Z,2.57
2019-01-14T18:07:46.962Z,2.46
2019-01-14T18:10:15.667Z,2.34
2019-01-14T18:12:43.452Z,2.41
2019-01-14T18:15:11.177Z,2.35
2019-01-14T18:17:38.826Z,2.46
2019-01-14T18:20:08.377Z,2.60
2019-01-14T18:22:36.056Z,2.37
2019-01-14T18:25:04.734Z,2.41
2019-01-14T18:27:32.238Z,2.66
2019-01-14T18:29:59.706Z,2.65
2019-01-14T18:32:27.176Z,2.71
2019-01-14T18:34:55.039Z,2.63
2019-01-14T18:37:22.974Z,2.57
2019-01-14T18:39:50.876Z,2.51
2019-01-14T18:42:18.511Z,2.45
2019-01-14T18:44:47.228Z,2.44
2019-01-14T18:47:14.979Z,2.86
2019-01-14T18:49:42.490Z,2.89
2019-01-14T18:52:09.975Z,2.99
2019-01-14T18:54:37.528Z,2.80
2019-01-14T18:57:05.100Z,2.73
2019-01-14T18:59:32.667Z,2.43
2019-01-14T19:02:00.328Z,2.64
2019-01-14T19:04:27.940Z,2.49
2019-01-14T19:06:55.735Z,2.59
2019-01-14T19:09:23.604Z,2.48
2019-01-14T19:11:51.501Z,2.55
2019-01-14T19:14:19.408Z,2.73
2019-01-14T19:16:47.246Z,2.75
2019-01-14T19:19:15.049Z,2.85
2019-01-14T19:21:43.030Z,2.85
2019-01-14T19:24:10.753Z,2.80
2019-01-14T19:26:38.330Z,2.36
2019-01-14T19:29:06.009Z,2.17
2019-01-14T19:31:33.738Z,2.50
2019-01-14T19:34:01.233Z,2.65
2019-01-14T19:36:28.935Z,2.69
2019-01-14T19:38:56.426Z,2.96
2019-01-14T19:41:23.914Z,3.23
2019-01-14T19:43:51.431Z,3.43
2019-01-14T19:46:19.225Z,3.51
2019-01-14T19:48:46.848Z,3.68
2019-01-14T19:51:15.059Z,3.70
2019-01-14T19:53:42.927Z,3.87
2019-01-14T19:56:10.745Z,4.08
2019-01-14T19:58:38.411Z,4.11
2019-01-14T20:01:06.053Z,4.29
2019-01-14T20:03:33.656Z,4.18
2019-01-14T20:06:02.110Z,4.27
2019-01-14T20:08:29.862Z,4.44
2019-01-14T20:10:57.534Z,4.48
2019-01-14T20:13:25.119Z,4.41
2019-01-14T20:15:52.804Z,4.48
2019-01-14T20:18:20.260Z,4.35
2019-01-14T20:20:47.864Z,4.35
2019-01-14T20:23:15.384Z,4.45
2019-01-14T20:25:42.843Z,4.27
2019-01-14T20:28:10.499Z,4.30
2019-01-14T20:30:38.065Z,4.29
2019-01-14T20:33:06.344Z,4.17
2019-01-14T20:35:34.164Z,4.30
2019-01-14T20:38:01.723Z,4.22
2019-01-14T20:40:29.528Z,4.14
2019-01-14T20:42:57.625Z,4.19
2019-01-14T20:45:25.726Z,4.12
2019-01-14T20:47:53.580Z,4.22
2019-01-14T20:50:21.631Z,4.31
2019-01-14T20:52:49.611Z,4.33
2019-01-14T20:55:17.235Z,4.22
2019-01-14T20:57:45.121Z,4.11
2019-01-14T21:00:24.837Z,3.97
2019-01-14T21:02:52.880Z,3.91
2019-01-14T21:05:21.955Z,3.88
2019-01-14T21:07:49.550Z,3.82
2019-01-14T21:10:17.636Z,3.77
2019-01-14T21:12:45.142Z,3.58
2019-01-14T21:15:13.287Z,3.46
2019-01-14T21:17:40.925Z,3.35
2019-01-14T21:20:18.058Z,3.44
2019-01-14T21:22:45.680Z,3.53
2019-01-14T21:25:13.607Z,3.55
2019-01-14T21:27:41.146Z,3.33
2019-01-14T21:30:12.044Z,3.50
2019-01-14T21:32:40.829Z,3.53
2019-01-14T21:35:10.705Z,3.30
2019-01-14T21:37:38.381Z,3.35
2019-01-14T21:40:07.873Z,3.14
2019-01-14T21:42:35.373Z,3.19
2019-01-14T21:45:03.776Z,3.27
2019-01-14T21:47:32.744Z,3.33
2019-01-14T21:50:00.583Z,3.27
2019-01-14T21:52:28.154Z,3.21
2019-01-14T21:54:55.675Z,3.06
2019-01-14T21:57:23.237Z,3.12
2019-01-14T21:59:50.761Z,3.04
2019-01-14T22:02:18.403Z,3.01
2019-01-14T22:04:45.934Z,3.03
2019-01-14T22:07:13.555Z,2.89
2019-01-14T22:09:41.133Z,3.16
2019-01-14T22:12:08.775Z,3.10
2019-01-14T22:14:36.174Z,3.07
2019-01-14T22:17:03.886Z,2.99
2019-01-14T22:19:31.489Z,3.03
2019-01-14T22:21:58.902Z,2.90
2019-01-14T22:24:26.495Z,3.01
2019-01-14T22:26:55.121Z,2.97
2019-01-14T22:29:22.725Z,3.01
2019-01-14T22:31:50.198Z,3.01
2019-01-14T22:34:17.678Z,2.83
2019-01-14T22:36:45.202Z,2.80
2019-01-14T22:39:12.736Z,2.58
2019-01-14T22:41:45.669Z,2.48
2019-01-14T22:44:09.670Z,2.44
2019-01-14T22:46:37.206Z,2.35
2019-01-14T22:49:04.838Z,2.55
2019-01-14T22:51:32.315Z,2.57
2019-01-14T22:53:59.841Z,2.82
2019-01-14T22:56:27.311Z,2.51
2019-01-14T22:58:54.999Z,2.56
2019-01-14T23:01:34.740Z,2.51
2019-01-14T23:04:02.279Z,2.48
2019-01-14T23:06:29.846Z,2.44
2019-01-14T23:08:57.641Z,2.62
2019-01-14T23:11:25.229Z,2.56
2019-01-14T23:13:52.714Z,2.55
2019-01-14T23:16:20.233Z,2.56
2019-01-14T23:18:47.684Z,2.58
2019-01-14T23:21:15.274Z,2.48
2019-01-14T23:23:42.852Z,2.43
2019-01-14T23:26:10.344Z,2.36
2019-01-14T23:28:37.797Z,2.48
2019-01-14T23:31:05.339Z,2.28
2019-01-14T23:33:32.862Z,2.44
2019-01-14T23:36:00.346Z,2.56
2019-01-14T23:38:27.918Z,2.45
2019-01-14T23:40:55.431Z,2.42
2019-01-14T23:43:23.060Z,2.43
2019-01-14T23:45:50.637Z,2.42
2019-01-14T23:48:18.191Z,2.38
2019-01-14T23:50:45.668Z,2.49
2019-01-14T23:53:13.215Z,2.45
2019-01-14T23:55:40.762Z,2.30
2019-01-14T23:58:08.270Z,2.08
